Time;durP1;ratioP1;P1;durP2;ratioP2;P2;SDS_P1;SDS_P2;PMS_P1;PMS_P2;Temp;Humidity;BMP_temperature;BMP_pressure;BME280_temperature;BME280_humidity;BME280_pressure;Samples;Min_cycle;Max_cycle;Signal;HPM_P1;HPM_P2
2021/12/30 00:00:30;;;;;;;158.23;57.47;;;;;;;5.32;63.33;99553.41;5025460;28;20144;-69
2021/12/30 00:02:57;;;;;;;138.88;56.08;;;;;;;5.34;63.37;99545.44;5025916;28;20045;-69
2021/12/30 00:05:24;;;;;;;156.45;60.47;;;;;;;5.35;63.32;99547.16;5024965;28;20041;-70
2021/12/30 00:07:51;;;;;;;164.35;60.42;;;;;;;5.36;63.49;99560.13;5025497;28;20045;-72
2021/12/30 00:10:18;;;;;;;168.57;56.78;;;;;;;5.38;63.37;99552.16;5025518;28;20140;-72
2021/12/30 00:12:47;;;;;;;144.50;54.13;;;;;;;5.40;63.35;99557.31;5025364;28;20197;-71
2021/12/30 00:15:14;;;;;;;139.05;52.22;;;;;;;5.40;63.46;99552.91;5023924;28;20259;-70
2021/12/30 00:17:42;;;;;;;126.93;55.42;;;;;;;5.40;63.35;99559.94;5025539;28;20056;-71
2021/12/30 00:20:09;;;;;;;155.63;58.17;;;;;;;5.43;63.78;99557.97;5024936;28;20049;-73
2021/12/30 00:22:37;;;;;;;148.63;54.00;;;;;;;5.46;63.50;99555.16;5025470;28;20053;-72
2021/12/30 00:25:05;;;;;;;132.43;52.72;;;;;;;5.51;63.51;99554.88;5025383;28;20050;-68
2021/12/30 00:27:32;;;;;;;150.30;59.03;;;;;;;5.54;63.38;99552.06;5025151;28;20075;-71
2021/12/30 00:30:00;;;;;;;134.25;50.70;;;;;;;5.56;63.54;99544.94;5026159;28;20054;-70
2021/12/30 00:32:27;;;;;;;143.35;54.97;;;;;;;5.56;63.51;99558.03;5025318;28;20045;-70
2021/12/30 00:34:54;;;;;;;123.35;54.30;;;;;;;5.59;63.43;99570.13;5025017;28;20050;-71
2021/12/30 00:37:21;;;;;;;138.20;50.85;;;;;;;5.61;63.46;99563.00;5025215;28;20051;-71
2021/12/30 00:39:48;;;;;;;138.68;53.28;;;;;;;5.62;63.38;99548.94;5025185;28;20044;-71
2021/12/30 00:42:15;;;;;;;122.25;48.13;;;;;;;5.61;63.45;99547.28;5025208;28;20046;-66
2021/12/30 00:44:43;;;;;;;124.63;53.28;;;;;;;5.53;63.58;99540.75;5025755;28;20049;-72
2021/12/30 00:47:11;;;;;;;130.23;50.60;;;;;;;5.51;63.73;99547.88;5026095;28;20053;-69
2021/12/30 00:49:38;;;;;;;116.68;50.05;;;;;;;5.46;63.94;99543.84;5025889;28;20080;-72
2021/12/30 00:52:06;;;;;;;124.38;52.00;;;;;;;5.48;63.88;99541.97;5025700;28;20055;-68
2021/12/30 00:54:33;;;;;;;125.80;50.08;;;;;;;5.50;63.95;99543.56;5008019;28;20044;-70
2021/12/30 00:57:00;;;;;;;102.07;49.95;;;;;;;5.53;63.74;99543.38;5024622;28;20049;-73
2021/12/30 00:59:27;;;;;;;123.68;51.72;;;;;;;5.56;63.85;99544.94;5026352;28;20051;-73
2021/12/30 01:01:54;;;;;;;121.78;47.80;;;;;;;5.59;63.98;99538.69;5026907;28;20133;-69
2021/12/30 01:04:22;;;;;;;126.65;52.63;;;;;;;5.55;63.93;99541.50;5025789;28;20099;-72
2021/12/30 01:06:51;;;;;;;139.40;55.08;;;;;;;5.54;63.98;99537.19;5027202;28;20520;-72
2021/12/30 01:09:19;;;;;;;112.93;50.45;;;;;;;5.58;63.92;99534.38;5024088;28;20558;-68
2021/12/30 01:11:46;;;;;;;115.40;47.83;;;;;;;5.58;63.95;99537.81;5007297;28;20051;-71
2021/12/30 01:14:18;;;;;;;113.25;52.80;;;;;;;5.57;64.01;99535.31;5023317;28;20045;-69
2021/12/30 01:16:48;;;;;;;120.68;52.00;;;;;;;5.53;63.90;99532.06;5024895;28;20052;-64
2021/12/30 01:19:23;;;;;;;116.28;52.25;;;;;;;5.50;64.22;99540.09;5025321;28;20053;-64
2021/12/30 01:21:53;;;;;;;112.70;52.42;;;;;;;5.55;64.30;99538.03;5025464;28;20049;-70
2021/12/30 01:24:22;;;;;;;121.75;53.30;;;;;;;5.58;64.03;99542.22;5025279;28;20051;-67
2021/12/30 01:26:49;;;;;;;102.40;47.63;;;;;;;5.59;64.11;99539.53;5025128;28;20405;-66
2021/12/30 01:29:16;;;;;;;110.65;51.20;;;;;;;5.62;64.08;99548.94;5024664;28;20049;-65
2021/12/30 01:31:43;;;;;;;109.95;53.28;;;;;;;5.63;64.01;99553.25;5024701;28;20128;-64
2021/12/30 01:34:11;;;;;;;107.65;48.63;;;;;;;5.64;63.94;99550.56;5025170;28;20045;-70
2021/12/30 01:36:38;;;;;;;99.28;45.92;;;;;;;5.66;64.00;99546.06;5024261;28;20149;-70
2021/12/30 01:39:07;;;;;;;113.75;48.05;;;;;;;5.66;64.00;99550.47;5024809;28;20049;-69
2021/12/30 01:41:34;;;;;;;102.85;47.40;;;;;;;5.66;63.99;99550.47;5024768;28;20072;-70
2021/12/30 01:44:01;;;;;;;101.68;47.25;;;;;;;5.66;63.75;99546.06;5022879;28;20053;-66
2021/12/30 01:46:38;;;;;;;95.20;43.45;;;;;;;5.66;64.01;99556.53;5024008;28;20057;-69
2021/12/30 01:49:05;;;;;;;99.65;50.25;;;;;;;5.65;64.20;99556.63;5024627;28;20593;-69
2021/12/30 01:51:33;;;;;;;111.50;52.08;;;;;;;5.65;64.14;99559.25;5024933;28;20063;-73
2021/12/30 01:54:00;;;;;;;91.28;50.50;;;;;;;5.64;64.17;99558.41;5024120;28;20049;-68
2021/12/30 01:56:30;;;;;;;98.32;49.13;;;;;;;5.68;64.10;99556.44;5024860;28;20324;-70
2021/12/30 01:58:57;;;;;;;105.80;48.45;;;;;;;5.69;63.93;99552.84;5024767;28;20072;-67
2021/12/30 02:01:25;;;;;;;98.25;49.53;;;;;;;5.71;63.95;99554.47;5024849;28;20425;-68
2021/12/30 02:03:52;;;;;;;109.05;51.85;;;;;;;5.75;63.84;99555.09;5025916;28;20140;-70
2021/12/30 02:06:19;;;;;;;113.13;53.03;;;;;;;5.73;63.91;99557.00;5026029;28;20053;-71
2021/12/30 02:08:46;;;;;;;95.35;50.65;;;;;;;5.75;63.83;99553.31;5025991;28;20046;-69
2021/12/30 02:11:13;;;;;;;107.20;51.15;;;;;;;5.75;63.80;99555.09;5025402;28;20137;-73
2021/12/30 02:13:42;;;;;;;96.00;48.15;;;;;;;5.79;63.75;99551.34;5025941;28;20666;-66
2021/12/30 02:16:09;;;;;;;95.40;51.85;;;;;;;5.83;63.65;99562.47;5023843;28;20045;-66
2021/12/30 02:18:36;;;;;;;97.45;48.88;;;;;;;5.81;63.64;99567.81;5023979;28;20055;-67
2021/12/30 02:21:04;;;;;;;104.18;53.70;;;;;;;5.84;63.87;99572.88;5024332;28;20053;-71
2021/12/30 02:23:33;;;;;;;102.82;47.15;;;;;;;5.82;63.68;99579.16;5025637;28;20076;-70
2021/12/30 02:26:04;;;;;;;88.03;51.10;;;;;;;5.85;63.67;99576.31;5024994;28;20513;-71
2021/12/30 02:28:34;;;;;;;92.03;52.53;;;;;;;5.86;63.57;99573.59;5033667;28;20056;-69
2021/12/30 02:31:03;;;;;;;108.25;52.88;;;;;;;5.86;63.70;99568.34;5040274;28;20128;-65
2021/12/30 02:33:30;;;;;;;101.45;53.25;;;;;;;5.84;63.64;99570.25;5039666;28;20694;-67
2021/12/30 02:36:00;;;;;;;97.03;49.90;;;;;;;5.78;63.72;99562.78;5041109;28;20053;-69
2021/12/30 02:38:28;;;;;;;94.28;45.88;;;;;;;5.73;63.84;99565.69;5039040;28;20056;-66
2021/12/30 02:40:57;;;;;;;86.03;43.30;;;;;;;5.69;63.87;99556.34;5040054;28;20157;-64
2021/12/30 02:43:26;;;;;;;93.25;46.80;;;;;;;5.68;63.90;99548.56;5038846;28;20129;-65
2021/12/30 02:45:54;;;;;;;94.20;47.55;;;;;;;5.66;64.04;99540.81;5026547;28;20060;-69
2021/12/30 02:48:23;;;;;;;85.05;44.75;;;;;;;5.64;63.88;99540.06;5029810;28;20073;-65
2021/12/30 02:50:53;;;;;;;96.43;49.00;;;;;;;5.61;64.09;99542.03;5030233;28;20132;-66
2021/12/30 02:53:20;;;;;;;94.80;46.40;;;;;;;5.61;64.07;99539.44;5029811;28;20094;-69
2021/12/30 02:55:50;;;;;;;92.65;46.00;;;;;;;5.62;64.11;99554.19;5030529;28;20053;-70
2021/12/30 02:58:18;;;;;;;88.45;45.55;;;;;;;5.62;64.22;99551.56;5030580;28;20789;-67
2021/12/30 03:00:48;;;;;;;92.95;45.40;;;;;;;5.63;64.17;99574.22;5029629;28;20053;-66
2021/12/30 03:03:19;;;;;;;95.38;48.67;;;;;;;5.63;64.16;99579.47;5029714;28;20037;-69
2021/12/30 03:05:46;;;;;;;95.45;51.88;;;;;;;5.66;64.01;99582.72;5028466;28;20738;-70
2021/12/30 03:08:13;;;;;;;103.75;54.67;;;;;;;5.68;63.92;99580.00;5028504;28;20045;-68
2021/12/30 03:10:40;;;;;;;92.97;51.10;;;;;;;5.70;64.09;99586.81;5028614;28;20049;-66
2021/12/30 03:13:10;;;;;;;102.38;53.67;;;;;;;5.75;63.91;99589.19;5028413;28;20053;-63
2021/12/30 03:15:37;;;;;;;104.65;51.72;;;;;;;5.75;63.86;99600.50;5026127;28;20076;-66
2021/12/30 03:18:06;;;;;;;99.80;52.70;;;;;;;5.74;64.02;99605.81;5029788;28;20065;-70
2021/12/30 03:20:34;;;;;;;117.18;52.83;;;;;;;5.76;64.01;99606.56;5028586;28;20670;-65
2021/12/30 03:23:02;;;;;;;96.35;49.30;;;;;;;5.77;64.05;99607.41;5027921;28;20080;-67
2021/12/30 03:25:30;;;;;;;110.95;53.75;;;;;;;5.77;64.06;99607.41;5028204;28;20045;-66
2021/12/30 03:27:57;;;;;;;107.78;50.42;;;;;;;5.79;63.97;99609.00;5027577;28;20053;-65
2021/12/30 03:30:28;;;;;;;90.88;44.08;;;;;;;5.81;64.14;99601.88;5010251;28;20170;-65
2021/12/30 03:32:55;;;;;;;110.82;50.10;;;;;;;5.79;63.98;99606.38;5028826;28;20106;-65
2021/12/30 03:35:24;;;;;;;99.97;48.45;;;;;;;5.81;64.09;99616.75;5027459;28;20046;-64
2021/12/30 03:37:51;;;;;;;109.95;51.38;;;;;;;5.83;64.13;99620.13;5027270;28;20048;-63
2021/12/30 03:40:18;;;;;;;107.20;49.75;;;;;;;5.84;64.01;99625.28;5029642;28;20596;-69
2021/12/30 03:42:45;;;;;;;120.50;60.42;;;;;;;5.86;63.93;99626.00;5030763;28;20045;-70
2021/12/30 03:45:14;;;;;;;124.82;55.05;;;;;;;5.86;64.09;99631.25;5025935;28;20401;-65
2021/12/30 03:47:47;;;;;;;119.50;53.92;;;;;;;5.87;64.04;99632.94;5027339;28;20087;-65
2021/12/30 03:50:20;;;;;;;114.90;55.58;;;;;;;5.84;64.17;99637.53;5028177;28;20407;-71
2021/12/30 03:52:48;;;;;;;115.40;56.88;;;;;;;5.84;64.08;99642.78;5027781;28;20099;-67
2021/12/30 03:55:15;;;;;;;126.45;51.70;;;;;;;5.85;63.96;99642.69;5026852;28;20056;-66
2021/12/30 03:57:42;;;;;;;129.55;50.15;;;;;;;5.83;64.10;99641.94;5027578;28;20045;-71
2021/12/30 04:00:11;;;;;;;107.75;47.72;;;;;;;5.83;64.19;99636.69;5027437;28;20136;-64
2021/12/30 04:02:41;;;;;;;118.43;48.45;;;;;;;5.80;64.08;99630.78;5027041;28;20049;-66
2021/12/30 04:05:11;;;;;;;124.22;51.15;;;;;;;5.77;64.20;99626.59;5027180;28;20055;-69
2021/12/30 04:07:38;;;;;;;132.15;48.65;;;;;;;5.72;64.33;99623.41;5026983;28;20059;-72
2021/12/30 04:10:08;;;;;;;130.35;49.80;;;;;;;5.70;64.36;99625.28;5026077;28;20050;-71
2021/12/30 04:12:35;;;;;;;111.60;46.25;;;;;;;5.73;64.32;99630.34;5026937;28;20051;-66
2021/12/30 04:15:03;;;;;;;119.75;48.97;;;;;;;5.75;64.22;99634.56;5025367;28;20049;-67
2021/12/30 04:17:30;;;;;;;113.70;47.53;;;;;;;5.77;64.13;99626.59;5026807;28;20068;-67
2021/12/30 04:19:57;;;;;;;117.45;47.33;;;;;;;5.79;64.04;99627.34;5027029;28;20494;-70
2021/12/30 04:22:26;;;;;;;131.50;47.80;;;;;;;5.78;64.14;99645.78;5027222;28;20636;-66
2021/12/30 04:24:53;;;;;;;139.30;48.88;;;;;;;5.82;64.07;99648.13;5026758;28;20046;-65
2021/12/30 04:27:20;;;;;;;126.15;46.03;;;;;;;5.84;63.96;99651.47;5027406;28;20045;-66
2021/12/30 04:29:47;;;;;;;148.85;54.28;;;;;;;5.82;63.97;99655.16;5027344;28;20164;-66
2021/12/30 04:32:14;;;;;;;139.55;53.47;;;;;;;5.78;64.03;99651.88;5029071;28;20071;-70
2021/12/30 04:34:41;;;;;;;124.32;50.03;;;;;;;5.77;64.09;99649.34;5028021;28;20055;-64
2021/12/30 04:37:08;;;;;;;119.93;51.10;;;;;;;5.73;64.12;99652.16;5027250;28;20049;-72
2021/12/30 04:39:36;;;;;;;117.32;50.22;;;;;;;5.69;64.38;99649.81;5026594;28;20125;-69
2021/12/30 04:42:03;;;;;;;128.77;48.42;;;;;;;5.70;64.30;99651.50;5028445;28;20064;-63
2021/12/30 04:44:31;;;;;;;161.98;57.67;;;;;;;5.70;64.24;99651.50;5024849;28;20075;-67
2021/12/30 04:46:59;;;;;;;137.50;49.53;;;;;;;5.68;64.32;99650.75;4974396;28;20053;-68
2021/12/30 04:49:26;;;;;;;164.65;53.80;;;;;;;5.69;64.22;99645.44;5029891;28;20529;-71
2021/12/30 04:51:54;;;;;;;128.80;49.58;;;;;;;5.69;64.29;99639.31;5028558;28;20075;-67
2021/12/30 04:54:22;;;;;;;110.63;47.83;;;;;;;5.64;64.34;99636.19;5026207;28;20049;-65
2021/12/30 04:56:51;;;;;;;132.95;44.88;;;;;;;5.60;64.49;99640.75;5025943;28;20041;-66
2021/12/30 04:59:18;;;;;;;129.00;45.78;;;;;;;5.58;64.55;99639.97;5026644;28;20076;-72
2021/12/30 05:01:45;;;;;;;114.20;42.65;;;;;;;5.52;64.58;99641.22;5025392;28;20053;-65
2021/12/30 05:04:12;;;;;;;110.80;43.45;;;;;;;5.52;64.69;99638.59;5026108;28;20073;-66
2021/12/30 05:06:39;;;;;;;100.00;38.20;;;;;;;5.52;64.57;99640.38;5025645;28;20047;-65
2021/12/30 05:09:08;;;;;;;101.97;44.97;;;;;;;5.53;64.70;99629.81;5025895;28;20128;-66
2021/12/30 05:11:36;;;;;;;109.22;44.13;;;;;;;5.55;64.61;99614.84;5026582;28;20076;-65
2021/12/30 05:14:04;;;;;;;129.52;49.00;;;;;;;5.54;64.66;99626.22;5023688;28;20053;-66
2021/12/30 05:16:31;;;;;;;117.72;45.25;;;;;;;5.58;64.52;99620.81;5025416;28;20055;-70
2021/12/30 05:18:58;;;;;;;114.15;44.92;;;;;;;5.60;64.54;99624.19;5026560;28;20053;-66
2021/12/30 05:21:26;;;;;;;112.95;44.97;;;;;;;5.58;64.54;99626.06;5026579;28;20090;-68
2021/12/30 05:23:53;;;;;;;108.38;43.67;;;;;;;5.57;64.54;99630.47;5027658;28;20049;-64
2021/12/30 05:26:22;;;;;;;123.30;51.60;;;;;;;5.54;64.53;99631.47;5027388;28;20317;-64
2021/12/30 05:28:49;;;;;;;130.95;47.60;;;;;;;5.53;64.57;99640.28;5025655;28;20055;-71
2021/12/30 05:31:18;;;;;;;106.10;41.75;;;;;;;5.53;64.69;99645.53;5025883;28;20041;-69
2021/12/30 05:33:45;;;;;;;123.85;48.25;;;;;;;5.52;64.69;99654.31;5026056;28;20052;-65
2021/12/30 05:36:12;;;;;;;109.47;42.38;;;;;;;5.54;64.72;99662.06;5024192;28;20049;-64
2021/12/30 05:38:39;;;;;;;109.50;42.72;;;;;;;5.57;64.66;99664.50;5025740;28;20577;-70
2021/12/30 05:41:07;;;;;;;105.32;45.40;;;;;;;5.61;64.71;99662.56;5008043;28;20046;-64
2021/12/30 05:43:34;;;;;;;109.35;45.15;;;;;;;5.65;64.62;99661.41;5025075;28;20669;-69
2021/12/30 05:46:01;;;;;;;102.65;41.20;;;;;;;5.65;64.47;99659.63;5023893;28;20057;-70
2021/12/30 05:48:29;;;;;;;107.20;46.67;;;;;;;5.64;64.65;99654.50;5025747;28;20417;-72
2021/12/30 05:50:59;;;;;;;97.95;44.22;;;;;;;5.68;64.58;99659.44;5024429;28;20517;-66
2021/12/30 05:53:28;;;;;;;118.28;46.10;;;;;;;5.71;64.59;99668.91;5025441;28;20136;-69
2021/12/30 05:55:55;;;;;;;106.30;39.92;;;;;;;5.72;64.45;99676.66;5024666;28;20048;-66
2021/12/30 05:58:22;;;;;;;117.28;46.85;;;;;;;5.69;64.65;99683.88;5025243;28;20045;-68
2021/12/30 06:00:50;;;;;;;93.28;42.67;;;;;;;5.73;64.75;99685.38;5024822;28;20049;-65
2021/12/30 06:03:19;;;;;;;104.72;44.28;;;;;;;5.75;64.71;99684.34;5023517;28;20051;-64
2021/12/30 06:05:47;;;;;;;108.00;45.65;;;;;;;5.74;64.66;99689.66;5023984;28;20045;-66
2021/12/30 06:08:15;;;;;;;94.70;40.70;;;;;;;5.73;64.76;99691.47;5025299;28;20755;-64
2021/12/30 06:10:43;;;;;;;77.93;31.40;;;;;;;5.74;64.73;99694.91;5027508;28;20050;-71
2021/12/30 06:13:10;;;;;;;101.30;43.28;;;;;;;5.74;64.82;99694.91;5023707;28;20054;-66
2021/12/30 06:15:37;;;;;;;110.82;42.05;;;;;;;5.74;64.80;99697.53;5022534;28;20486;-64
2021/12/30 06:18:04;;;;;;;95.45;41.30;;;;;;;5.77;64.93;99697.34;5024116;28;20064;-66
2021/12/30 06:20:31;;;;;;;103.00;47.22;;;;;;;5.76;64.98;99695.66;5021662;28;20050;-65
2021/12/30 06:23:00;;;;;;;95.82;40.90;;;;;;;5.79;64.87;99695.47;5025281;28;20056;-68
2021/12/30 06:25:27;;;;;;;110.07;44.78;;;;;;;5.82;64.91;99697.09;5024404;28;20500;-72
2021/12/30 06:27:54;;;;;;;95.95;42.22;;;;;;;5.82;64.75;99695.28;5024512;28;20045;-70
2021/12/30 06:30:21;;;;;;;83.40;36.30;;;;;;;5.79;64.92;99692.03;5024416;28;20658;-71
2021/12/30 06:32:48;;;;;;;88.50;39.40;;;;;;;5.78;64.99;99695.56;5023713;28;20057;-67
2021/12/30 06:35:15;;;;;;;95.53;36.38;;;;;;;5.78;64.90;99691.19;5023739;28;20050;-68
2021/12/30 06:37:42;;;;;;;101.50;41.10;;;;;;;5.79;64.98;99692.03;5024266;28;20647;-70
2021/12/30 06:40:13;;;;;;;89.13;37.38;;;;;;;5.83;64.94;99704.81;5024176;28;20608;-71
2021/12/30 06:42:43;;;;;;;96.70;41.08;;;;;;;5.84;64.97;99703.06;5024132;28;20502;-67
2021/12/30 06:45:10;;;;;;;89.05;38.53;;;;;;;5.85;64.89;99704.72;5024169;28;20046;-67
2021/12/30 06:47:37;;;;;;;84.43;39.88;;;;;;;5.91;64.68;99710.44;5027387;28;20057;-70
2021/12/30 06:50:05;;;;;;;86.82;37.88;;;;;;;5.90;64.74;99702.66;5027782;28;20105;-68
2021/12/30 06:52:32;;;;;;;96.05;36.95;;;;;;;5.93;64.85;99694.63;5028313;28;20136;-67
2021/12/30 06:54:59;;;;;;;102.32;41.55;;;;;;;5.93;64.79;99702.50;5025928;28;20564;-72
2021/12/30 06:57:28;;;;;;;101.32;39.20;;;;;;;5.92;64.86;99701.66;5023574;28;20059;-71
2021/12/30 06:59:55;;;;;;;97.45;38.38;;;;;;;5.94;64.84;99702.41;5023503;28;20571;-71
2021/12/30 07:02:23;;;;;;;100.68;41.22;;;;;;;5.97;64.82;99711.03;5023500;28;20067;-68
2021/12/30 07:04:50;;;;;;;97.18;42.00;;;;;;;6.01;64.76;99715.16;5023269;28;20042;-67
2021/12/30 07:07:16;;;;;;;82.22;36.58;;;;;;;6.04;64.67;99721.03;5022697;28;20045;-67
2021/12/30 07:09:43;;;;;;;104.03;42.10;;;;;;;6.04;64.76;99717.59;5023508;28;20050;-70
2021/12/30 07:12:10;;;;;;;100.72;39.25;;;;;;;6.01;64.83;99723.84;5023305;28;20696;-66
2021/12/30 07:14:39;;;;;;;97.53;40.63;;;;;;;6.04;64.82;99728.06;5025260;28;20053;-65
2021/12/30 07:17:06;;;;;;;85.63;39.78;;;;;;;6.04;64.90;99717.59;5027526;28;20048;-70
2021/12/30 07:19:33;;;;;;;90.65;39.55;;;;;;;6.08;64.85;99724.31;5027019;28;20049;-72
2021/12/30 07:22:00;;;;;;;95.43;43.88;;;;;;;6.08;64.82;99724.31;5026698;28;20054;-71
2021/12/30 07:24:27;;;;;;;97.18;38.63;;;;;;;6.10;64.95;99727.69;5026660;28;20052;-74
2021/12/30 07:26:54;;;;;;;91.95;38.13;;;;;;;6.17;64.85;99738.63;5026970;28;20052;-69
2021/12/30 07:29:21;;;;;;;92.55;41.75;;;;;;;6.16;64.49;99734.31;5027467;28;20639;-71
2021/12/30 07:31:49;;;;;;;102.72;39.85;;;;;;;6.18;64.85;99732.47;5025298;28;20059;-72
2021/12/30 07:34:17;;;;;;;98.43;41.22;;;;;;;6.19;64.89;99737.59;5027586;28;20048;-66
2021/12/30 07:36:44;;;;;;;93.55;41.50;;;;;;;6.25;64.76;99733.75;5027729;28;20520;-66
2021/12/30 07:39:12;;;;;;;92.38;36.13;;;;;;;6.27;64.73;99730.09;5030168;28;20041;-68
2021/12/30 07:41:39;;;;;;;103.38;37.83;;;;;;;6.27;64.76;99735.34;5031834;28;20055;-71
2021/12/30 07:44:06;;;;;;;108.60;42.03;;;;;;;6.29;64.97;99733.47;5032478;28;20045;-75
2021/12/30 07:46:33;;;;;;;92.65;41.20;;;;;;;6.32;64.74;99733.28;5026247;28;20059;-65
2021/12/30 07:49:02;;;;;;;104.20;41.55;;;;;;;6.32;64.99;99735.06;5026130;28;20049;-68
2021/12/30 07:51:29;;;;;;;88.93;37.00;;;;;;;6.34;64.85;99732.31;5025850;28;20056;-70
2021/12/30 07:53:56;;;;;;;97.70;38.53;;;;;;;6.35;64.88;99726.16;5024435;28;20144;-69
2021/12/30 07:56:23;;;;;;;101.85;41.95;;;;;;;6.35;64.83;99721.72;5024899;28;20211;-67
2021/12/30 07:58:50;;;;;;;96.00;41.30;;;;;;;6.36;64.87;99727.84;5006127;28;20050;-66
2021/12/30 08:01:17;;;;;;;94.63;43.40;;;;;;;6.39;64.93;99717.13;5023524;28;20077;-69
2021/12/30 08:03:44;;;;;;;88.20;36.22;;;;;;;6.41;64.80;99725.75;5024438;28;20175;-66
2021/12/30 08:06:12;;;;;;;90.22;39.70;;;;;;;6.43;64.88;99734.38;5023310;28;20750;-76
2021/12/30 08:08:40;;;;;;;93.38;39.95;;;;;;;6.46;64.93;99744.66;5024466;28;20099;-71
2021/12/30 08:11:07;;;;;;;75.28;33.13;;;;;;;6.50;64.84;99741.75;5023548;28;20041;-71
2021/12/30 08:13:34;;;;;;;103.00;45.05;;;;;;;6.51;64.88;99747.84;5022705;28;20056;-67
2021/12/30 08:16:01;;;;;;;103.05;44.22;;;;;;;6.56;64.78;99758.88;5021527;28;20056;-70
2021/12/30 08:18:28;;;;;;;90.90;42.08;;;;;;;6.60;64.67;99749.88;5024991;28;20083;-69
2021/12/30 08:20:56;;;;;;;83.93;35.80;;;;;;;6.64;64.64;99740.84;5023822;28;20526;-73
2021/12/30 08:23:25;;;;;;;89.38;37.80;;;;;;;6.65;64.72;99753.03;5023504;28;20103;-70
2021/12/30 08:25:52;;;;;;;77.85;39.67;;;;;;;6.65;64.82;99749.59;5021967;28;20045;-67
2021/12/30 08:28:21;;;;;;;92.15;43.00;;;;;;;6.75;64.73;99748.03;5024436;28;20128;-69
2021/12/30 08:30:48;;;;;;;87.97;42.15;;;;;;;6.86;64.53;99742.09;5023696;28;20616;-70
2021/12/30 08:33:15;;;;;;;93.85;43.42;;;;;;;6.92;64.38;99736.44;5023757;28;20050;-70
2021/12/30 08:35:41;;;;;;;86.10;41.42;;;;;;;7.02;64.20;99740.16;5023489;28;20885;-66
2021/12/30 08:38:08;;;;;;;92.22;42.13;;;;;;;7.18;63.87;99744.38;5025160;28;20225;-68
2021/12/30 08:40:38;;;;;;;93.55;41.78;;;;;;;7.29;63.86;99747.13;5022775;28;20812;-74
2021/12/30 08:43:06;;;;;;;84.63;40.70;;;;;;;7.32;63.89;99760.06;5030445;28;20056;-74
2021/12/30 08:45:34;;;;;;;85.80;38.35;;;;;;;7.25;63.83;99748.28;5027241;28;20179;-76
2021/12/30 08:48:01;;;;;;;82.75;40.97;;;;;;;7.22;64.02;99746.72;5024071;28;20821;-71
2021/12/30 08:50:29;;;;;;;76.82;39.65;;;;;;;7.19;64.11;99749.53;5019444;28;20049;-69
2021/12/30 08:52:56;;;;;;;78.85;38.00;;;;;;;7.17;63.96;99755.84;5019040;28;20045;-74
2021/12/30 08:55:23;;;;;;;74.07;38.35;;;;;;;7.14;64.03;99745.53;5023866;28;20091;-72
2021/12/30 08:57:52;;;;;;;65.10;35.88;;;;;;;7.14;64.10;99738.50;5021858;28;20045;-73
2021/12/30 09:00:23;;;;;;;79.43;37.35;;;;;;;7.10;64.00;99737.03;5024633;28;20042;-69
2021/12/30 09:02:50;;;;;;;75.18;37.78;;;;;;;7.08;64.05;99741.53;5024022;28;20051;-72
2021/12/30 09:05:17;;;;;;;69.35;33.75;;;;;;;7.09;64.13;99727.44;5022505;28;20060;-69
2021/12/30 09:07:44;;;;;;;72.85;34.15;;;;;;;7.07;64.16;99724.91;5020811;28;20092;-74
2021/12/30 09:10:13;;;;;;;67.60;36.92;;;;;;;7.07;64.10;99714.41;5023600;28;20414;-71
2021/12/30 09:12:43;;;;;;;72.68;36.67;;;;;;;7.10;64.04;99723.06;5026973;28;20046;-74
2021/12/30 09:15:14;;;;;;;65.90;33.95;;;;;;;7.11;63.95;99714.22;5019024;28;20045;-75
2021/12/30 09:17:42;;;;;;;61.70;33.45;;;;;;;7.11;64.02;99714.22;5019482;28;20056;-77
2021/12/30 09:20:10;;;;;;;66.63;35.13;;;;;;;7.11;64.21;99708.97;5022662;28;20065;-75
2021/12/30 09:22:43;;;;;;;69.13;34.80;;;;;;;7.14;64.07;99709.59;5023102;28;20041;-70
2021/12/30 09:25:13;;;;;;;63.97;35.95;;;;;;;7.24;63.79;99720.34;5022219;28;20042;-73
2021/12/30 09:27:41;;;;;;;75.10;35.53;;;;;;;7.32;63.62;99718.03;5025851;28;20087;-73
2021/12/30 09:30:11;;;;;;;63.30;35.00;;;;;;;7.39;63.58;99718.47;5027773;28;20113;-70
2021/12/30 09:32:44;;;;;;;63.42;35.70;;;;;;;7.49;63.42;99719.53;5033095;28;20080;-71
2021/12/30 09:35:12;;;;;;;65.63;36.60;;;;;;;7.56;63.43;99719.94;5034461;28;20146;-77
2021/12/30 09:37:40;;;;;;;62.85;35.13;;;;;;;7.65;62.98;99722.78;5031629;28;20068;-70
2021/12/30 09:40:18;;;;;;;66.43;37.00;;;;;;;7.67;63.09;99717.44;5031757;28;20424;-75
2021/12/30 09:42:49;;;;;;;67.85;37.80;;;;;;;7.76;62.97;99716.78;5024253;28;20051;-68
2021/12/30 09:45:17;;;;;;;67.15;40.45;;;;;;;7.81;62.82;99713.81;5031813;28;20123;-74
2021/12/30 09:47:49;;;;;;;63.92;37.20;;;;;;;7.89;62.65;99708.06;5002121;28;20102;-71
2021/12/30 09:50:19;;;;;;;63.30;35.03;;;;;;;7.93;62.66;99717.41;5035717;28;20038;-72
2021/12/30 09:52:46;;;;;;;64.10;34.88;;;;;;;7.96;62.52;99720.66;5030963;28;20099;-71
2021/12/30 09:55:13;;;;;;;63.22;31.85;;;;;;;7.92;62.52;99716.53;5029563;28;20112;-73
2021/12/30 09:57:41;;;;;;;58.70;34.40;;;;;;;7.89;62.58;99711.50;5024391;28;20037;-74
2021/12/30 10:00:12;;;;;;;59.70;31.23;;;;;;;7.95;62.60;99704.97;5019998;28;20054;-70
2021/12/30 10:02:40;;;;;;;56.72;28.45;;;;;;;8.05;62.33;99716.53;5018792;28;20176;-77
2021/12/30 10:05:11;;;;;;;53.85;30.33;;;;;;;8.17;62.16;99723.53;5018370;28;20041;-71
2021/12/30 10:07:41;;;;;;;54.38;28.98;;;;;;;8.23;61.98;99715.22;5019745;28;20187;-72
2021/12/30 10:10:26;;;;;;;54.92;30.20;;;;;;;8.26;61.99;99715.94;5018624;28;20448;-69
2021/12/30 10:12:54;;;;;;;56.95;29.92;;;;;;;8.21;62.10;99711.88;5018819;28;20049;-74
2021/12/30 10:15:25;;;;;;;46.47;26.17;;;;;;;8.11;62.05;99713.47;5018006;28;20055;-72
2021/12/30 10:17:57;;;;;;;51.45;30.40;;;;;;;8.07;62.27;99712.00;5014368;28;20103;-70
2021/12/30 10:20:28;;;;;;;45.45;30.63;;;;;;;8.04;62.21;99706.97;5021953;28;20407;-74
2021/12/30 10:22:56;;;;;;;53.75;30.35;;;;;;;7.95;62.18;99712.88;5020607;28;20042;-75
2021/12/30 10:25:29;;;;;;;59.70;32.90;;;;;;;7.94;62.40;99719.06;5019484;28;20182;-71
2021/12/30 10:27:57;;;;;;;66.78;34.58;;;;;;;7.95;62.19;99710.25;5021166;28;20038;-76
2021/12/30 10:30:32;;;;;;;68.75;35.22;;;;;;;7.99;62.20;99714.31;5021666;28;20133;-69
2021/12/30 10:33:12;;;;;;;66.10;37.83;;;;;;;8.09;62.13;99714.53;5013054;28;20042;-70
2021/12/30 10:35:41;;;;;;;72.05;38.00;;;;;;;8.10;61.85;99714.41;5019141;28;20063;-76
2021/12/30 10:38:12;;;;;;;59.75;32.13;;;;;;;8.15;61.68;99714.91;5021161;28;20041;-71
2021/12/30 10:40:42;;;;;;;53.67;29.27;;;;;;;8.17;61.77;99715.66;5019617;28;20048;-76
2021/12/30 10:43:27;;;;;;;50.33;31.33;;;;;;;8.21;61.80;99713.63;5024384;28;20430;-74
2021/12/30 10:46:13;;;;;;;49.85;27.95;;;;;;;8.29;61.57;99707.84;5016851;28;20093;-77
2021/12/30 10:49:00;;;;;;;60.88;31.95;;;;;;;8.38;61.65;99707.19;5017070;28;20404;-72
2021/12/30 10:51:35;;;;;;;53.67;33.45;;;;;;;8.42;61.29;99706.88;5023609;28;20175;-75
2021/12/30 10:54:10;;;;;;;;;;;;;;;8.70;60.79;99698.78;5020986;28;20128;-72
2021/12/30 10:56:39;;;;;;;53.97;30.25;;;;;;;8.47;61.12;99703.09;5026390;28;19921;-73
2021/12/30 10:59:18;;;;;;;48.00;28.33;;;;;;;8.49;61.36;99714.34;5028910;28;20055;-71
2021/12/30 11:01:47;;;;;;;48.28;29.67;;;;;;;8.44;61.19;99701.50;5021198;28;20060;-75
2021/12/30 11:04:14;;;;;;;43.53;27.02;;;;;;;8.42;61.35;99709.50;5031528;28;20045;-71
2021/12/30 11:06:43;;;;;;;52.92;29.40;;;;;;;8.39;61.41;99707.06;5030586;28;20096;-75
2021/12/30 11:09:16;;;;;;;55.22;31.63;;;;;;;8.40;61.39;99710.53;5025522;28;20520;-72
2021/12/30 11:11:46;;;;;;;49.30;30.55;;;;;;;8.33;61.54;99704.03;5023116;28;20047;-78
2021/12/30 11:14:16;;;;;;;52.35;31.30;;;;;;;8.24;61.60;99701.09;5024649;28;20700;-75
2021/12/30 11:17:06;;;;;;;53.42;32.70;;;;;;;8.30;61.86;99691.97;5026113;28;20044;-77
2021/12/30 11:19:37;;;;;;;52.55;28.42;;;;;;;8.34;61.41;99689.94;5033091;28;20045;-71
2021/12/30 11:22:08;;;;;;;53.10;29.48;;;;;;;8.39;61.34;99693.06;5029778;28;20064;-76
2021/12/30 11:24:36;;;;;;;49.95;32.17;;;;;;;8.46;61.16;99693.50;5028287;28;20046;-75
2021/12/30 11:27:05;;;;;;;48.35;29.10;;;;;;;8.51;61.12;99689.56;5026365;28;20075;-73